Flight Track Log - Related Links

Times and Time Zones

All times are in EDT time to prevent confusion due to time zone crossing. See the DAL6234 flight status page for this flight to view local times or setup timezone preferences in your user account.

Time Position Orientation Groundspeed Altitude Reporting Facility
EDT Latitude Longitude Course Direction KTS MPH feet Rate Location/Type
Sun 04:19:00 PM 42.9684 -75.9636 325° Northwest  Level Estimated
Sun 04:20:00 PM 42.9711 -75.9663 324° Northwest  Level Estimated
Sun 04:21:00 PM 42.9739 -75.9690 324° Northwest  Level Estimated
Sun 04:22:00 PM 42.9766 -75.9717 324° Northwest  Level Estimated
Sun 04:23:00 PM 42.9793 -75.9744 324° Northwest  Level Estimated
Sun 04:24:00 PM 42.9820 -75.9772 324° Northwest  Level Estimated
Sun 04:25:00 PM 42.9847 -75.9799 324° Northwest  Level Estimated
Sun 04:26:00 PM 42.9875 -75.9826 324° Northwest  Level Estimated
Sun 04:27:00 PM 42.9902 -75.9853 324° Northwest  Level Estimated
Sun 04:28:00 PM 42.9929 -75.9880 324° Northwest  Level Estimated
Sun 04:29:00 PM 42.9956 -75.9907 324° Northwest  Level Estimated
Sun 04:30:00 PM 42.9983 -75.9934 324° Northwest  Level Estimated
Sun 04:31:00 PM 43.0011 -75.9961 324° Northwest  Level Estimated
Sun 04:32:00 PM 43.0038 -75.9988 324° Northwest  Level Estimated
Sun 04:33:00 PM 43.0065 -76.0015 324° Northwest  Level Estimated
Sun 04:34:00 PM 43.0092 -76.0043 324° Northwest  Level Estimated
Sun 04:35:00 PM 43.0119 -76.0070 324° Northwest  Level Estimated
Sun 04:36:00 PM 43.0146 -76.0097 324° Northwest  Level Estimated
Sun 04:37:00 PM 43.0173 -76.0124 324° Northwest  Level Estimated
Sun 04:38:00 PM 43.0200 -76.0151 324° Northwest  Level Estimated
Sun 04:39:00 PM 43.0228 -76.0178 324° Northwest  Level Estimated
Sun 04:40:00 PM 43.0255 -76.0205 324° Northwest  Level Estimated
Sun 04:41:00 PM 43.0282 -76.0232 324° Northwest  Level Estimated
Sun 04:42:00 PM 43.0309 -76.0259 324° Northwest  Level Estimated
Sun 04:43:00 PM 43.0336 -76.0286 324° Northwest  Level Estimated
Sun 04:44:00 PM 43.0363 -76.0314 324° Northwest  Level Estimated
Sun 04:45:00 PM 43.0390 -76.0341 324° Northwest  Level Estimated
Sun 04:46:00 PM 43.0417 -76.0368 324° Northwest  Level Estimated
Sun 04:47:00 PM 43.0444 -76.0395 324° Northwest  Level Estimated
Sun 04:48:00 PM 43.0471 -76.0422 324° Northwest  Level Estimated
Sun 04:49:00 PM 43.0499 -76.0449 324° Northwest  Level Estimated
Sun 04:50:00 PM 43.0526 -76.0476 324° Northwest  Level Estimated
Sun 04:51:00 PM 43.0553 -76.0503 324° Northwest  Level Estimated
Sun 04:52:00 PM 43.0580 -76.0530 324° Northwest  Level Estimated
Sun 04:53:00 PM 43.0607 -76.0557 324° Northwest  Level Estimated
Sun 04:54:00 PM 43.0634 -76.0585 324° Northwest  Level Estimated
Sun 04:55:00 PM 43.0661 -76.0612 324° Northwest  Level Estimated
Sun 04:56:00 PM 43.0688 -76.0639 324° Northwest  Level Estimated
Sun 04:57:00 PM 43.0715 -76.0666 324° Northwest  Level Estimated
Sun 04:58:00 PM 43.0742 -76.0693 324° Northwest  Level Estimated
Sun 04:59:00 PM 43.0770 -76.0720 324° Northwest  Level Estimated
Sun 05:00:00 PM 43.0797 -76.0747 324° Northwest  Level Estimated
Sun 05:01:00 PM 43.0824 -76.0775 324° Northwest  Level Estimated
Sun 05:02:00 PM 43.0851 -76.0802 324° Northwest  Level Estimated
Sun 05:03:00 PM 43.0878 -76.0829 324° Northwest  Level Estimated
Sun 05:04:00 PM 43.0905 -76.0856 324° Northwest  Level Estimated
Sun 05:05:00 PM 43.0932 -76.0883 324° Northwest  Level Estimated
Sun 05:06:00 PM 43.0959 -76.0910 324° Northwest  Level Estimated
Sun 05:07:00 PM 43.0986 -76.0937 324° Northwest  Level Estimated
Sun 05:08:00 PM 43.1013 -76.0965 324° Northwest  Level Estimated
Sun 05:09:00 PM 43.1040 -76.0992 324° Northwest  Level Estimated
Sun 05:10:00 PM 43.1068 -76.1019 324° Northwest  Level Estimated
Sun 05:11:00 PM 43.1095 -76.1046 324° Northwest  Level Estimated
Sun 05:12:00 PM 43.1112 -76.1063 324° Northwest  Level Estimated
Sun 05:13:00 PM 43.1112 -76.1063 36° Northeast  Level Estimated
Sun 05:14:00 PM 43.1112 -76.1063 36° Northeast  Level Estimated
Sun 05:15:00 PM 43.1112 -76.1063 36° Northeast  Level Estimated
Sun 05:16:00 PM 43.1112 -76.1063 36° Northeast  Level Estimated
Sun 05:17:00 PM 43.1112 -76.1063 36° Northeast  Level Estimated
Sun 05:18:00 PM 43.1112 -76.1063 36° Northeast  Level Estimated
Sun 05:19:00 PM 43.1112 -76.1063 36° Northeast  Level Estimated
Sun 05:20:00 PM 43.1112 -76.1063 36° Northeast  Level Estimated
Sun 05:21:00 PM 43.1112 -76.1063 36° Northeast  Level Estimated
Sun 05:22:00 PM 43.1112 -76.1063 36° Northeast  Level Estimated
Sun 05:23:00 PM 43.1112 -76.1063 36° Northeast  Level Estimated
Sun 05:24:00 PM 43.1112 -76.1063 36° Northeast  Level Estimated
Sun 05:25:00 PM 43.1112 -76.1063 36° Northeast  Level Estimated
Sun 05:26:00 PM 43.1112 -76.1063 36° Northeast  Level Estimated
Sun 05:27:00 PM 43.1112 -76.1063 36° Northeast  Level Estimated

Login

Don't have an account? Register now (free) for customized features, flight alerts, and more!